createdAt,value
2018-09-21T00:02:06.563Z,19.10
2018-09-21T00:04:36.006Z,18.97
2018-09-21T00:07:05.362Z,18.87
2018-09-21T00:09:34.818Z,18.82
2018-09-21T00:12:04.179Z,18.78
2018-09-21T00:14:33.626Z,18.53
2018-09-21T00:17:03.042Z,18.34
2018-09-21T00:19:32.406Z,18.22
2018-09-21T00:22:01.818Z,18.10
2018-09-21T00:24:31.171Z,18.07
2018-09-21T00:27:00.543Z,18.16
2018-09-21T00:29:29.933Z,18.22
2018-09-21T00:31:59.280Z,18.25
2018-09-21T00:34:28.763Z,17.86
2018-09-21T00:36:58.113Z,17.75
2018-09-21T00:39:27.549Z,17.66
2018-09-21T00:41:56.898Z,17.68
2018-09-21T00:44:26.341Z,17.73
2018-09-21T00:46:55.710Z,17.76
2018-09-21T00:49:25.078Z,17.73
2018-09-21T00:51:54.441Z,17.75
2018-09-21T00:54:23.867Z,17.68
2018-09-21T00:56:53.235Z,17.62
2018-09-21T00:59:22.654Z,17.52
2018-09-21T01:01:52.012Z,17.41
2018-09-21T01:04:21.488Z,17.45
2018-09-21T01:06:50.839Z,17.66
2018-09-21T01:09:20.289Z,17.45
2018-09-21T01:11:49.684Z,17.34
2018-09-21T01:14:19.095Z,17.35
2018-09-21T01:16:48.460Z,17.18
2018-09-21T01:19:17.896Z,17.06
2018-09-21T01:21:47.268Z,17.06
2018-09-21T01:24:16.706Z,17.32
2018-09-21T01:26:46.114Z,17.43
2018-09-21T01:29:15.499Z,17.32
2018-09-21T01:31:44.862Z,17.24
2018-09-21T01:34:14.760Z,17.23
2018-09-21T01:36:44.167Z,17.08
2018-09-21T01:39:13.638Z,16.97
2018-09-21T01:41:42.986Z,16.96
2018-09-21T01:44:12.438Z,16.97
2018-09-21T01:46:41.806Z,16.98
2018-09-21T01:49:11.228Z,17.04
2018-09-21T01:51:40.582Z,17.04
2018-09-21T01:54:10.010Z,17.09
2018-09-21T01:56:39.376Z,17.20
2018-09-21T01:59:08.826Z,17.51
2018-09-21T02:01:38.188Z,17.82
2018-09-21T02:04:07.798Z,18.48
2018-09-21T02:06:37.175Z,18.95
2018-09-21T02:09:08.847Z,18.90
2018-09-21T02:11:38.224Z,18.91
2018-09-21T02:14:07.631Z,18.55
2018-09-21T02:16:37.192Z,18.37
2018-09-21T02:19:06.606Z,18.40
2018-09-21T02:21:35.974Z,18.68
2018-09-21T02:24:05.441Z,18.96
2018-09-21T02:26:34.865Z,19.26
2018-09-21T02:29:04.210Z,19.28
2018-09-21T02:31:33.634Z,18.88
2018-09-21T02:34:02.991Z,18.60
2018-09-21T02:36:32.448Z,18.44
2018-09-21T02:39:01.826Z,18.34
2018-09-21T02:41:31.344Z,18.72
2018-09-21T02:44:00.640Z,18.95
2018-09-21T02:46:29.997Z,18.98
2018-09-21T02:48:59.400Z,18.82
2018-09-21T02:51:28.850Z,18.87
2018-09-21T02:53:58.264Z,18.90
2018-09-21T02:56:27.623Z,18.92
2018-09-21T02:58:57.054Z,18.84
2018-09-21T03:01:26.447Z,18.72
2018-09-21T03:03:55.863Z,18.63
2018-09-21T03:06:25.224Z,18.42
2018-09-21T03:08:54.696Z,18.08
2018-09-21T03:11:24.050Z,18.12
2018-09-21T03:13:53.475Z,18.05
2018-09-21T03:16:22.871Z,18.15
2018-09-21T03:18:52.298Z,18.10
2018-09-21T03:21:21.662Z,17.96
2018-09-21T03:23:51.082Z,17.82
2018-09-21T03:26:20.442Z,17.28
2018-09-21T03:28:49.901Z,16.88
2018-09-21T03:31:19.267Z,16.87
2018-09-21T03:33:48.640Z,16.84
2018-09-21T03:36:17.987Z,16.85
2018-09-21T03:38:47.415Z,16.96
2018-09-21T03:41:16.768Z,17.19
2018-09-21T03:43:46.204Z,17.15
2018-09-21T03:46:15.570Z,17.06
2018-09-21T03:48:45.008Z,16.91
2018-09-21T03:51:14.554Z,16.53
2018-09-21T03:53:44.074Z,16.06
2018-09-21T03:56:13.441Z,15.85
2018-09-21T03:58:42.838Z,15.81
2018-09-21T04:01:12.325Z,15.83
2018-09-21T04:03:41.644Z,15.72
2018-09-21T04:06:11.041Z,16.01
2018-09-21T04:10:04.967Z,16.19
2018-09-21T04:12:34.360Z,16.14
2018-09-21T04:15:03.818Z,16.27
2018-09-21T04:17:33.185Z,16.12
2018-09-21T04:20:02.621Z,16.09
2018-09-21T04:22:32.271Z,16.19
2018-09-21T04:25:02.004Z,16.15
2018-09-21T04:27:31.366Z,16.38
2018-09-21T04:30:01.040Z,16.96
2018-09-21T04:32:30.421Z,17.53
2018-09-21T04:34:59.876Z,17.85
2018-09-21T04:37:29.234Z,17.92
2018-09-21T04:39:58.676Z,18.15
2018-09-21T04:42:28.019Z,18.18
2018-09-21T04:44:57.469Z,18.20
2018-09-21T04:47:26.881Z,18.15
2018-09-21T04:49:56.251Z,18.04
2018-09-21T04:52:25.699Z,18.18
2018-09-21T04:54:55.088Z,18.27
2018-09-21T04:57:24.450Z,18.37
2018-09-21T04:59:53.806Z,18.32
2018-09-21T05:02:23.198Z,18.34
2018-09-21T05:04:52.604Z,18.40
2018-09-21T05:07:22.039Z,18.47
2018-09-21T05:09:51.513Z,18.65
2018-09-21T05:12:20.932Z,18.67
2018-09-21T05:14:50.285Z,18.73
2018-09-21T05:17:19.682Z,18.75
2018-09-21T05:19:49.298Z,18.77
2018-09-21T05:22:18.824Z,18.82
2018-09-21T05:24:48.319Z,18.75
2018-09-21T05:27:17.701Z,18.81
2018-09-21T05:29:47.115Z,18.82
2018-09-21T05:32:16.479Z,18.86
2018-09-21T05:34:46.090Z,18.87
2018-09-21T05:37:15.318Z,18.93
2018-09-21T05:39:44.739Z,19.03
2018-09-21T05:42:14.133Z,19.02
2018-09-21T05:44:43.666Z,19.02
2018-09-21T05:47:13.032Z,18.95
2018-09-21T05:49:42.350Z,18.89
2018-09-21T05:52:12.097Z,18.98
2018-09-21T05:54:41.571Z,18.95
2018-09-21T05:57:10.942Z,18.94
2018-09-21T05:59:40.359Z,18.96
2018-09-21T06:02:09.745Z,19.06
2018-09-21T06:04:39.175Z,19.06
2018-09-21T06:07:08.538Z,18.95
2018-09-21T06:09:37.987Z,19.01
2018-09-21T06:12:07.402Z,19.05
2018-09-21T06:14:36.793Z,19.17
2018-09-21T06:17:06.303Z,19.13
2018-09-21T06:19:35.714Z,19.13
2018-09-21T06:22:05.059Z,19.15
2018-09-21T06:24:34.515Z,19.18
2018-09-21T06:27:03.866Z,19.27
2018-09-21T06:29:33.308Z,19.49
2018-09-21T06:32:02.742Z,19.60
2018-09-21T06:34:32.106Z,19.78
2018-09-21T06:37:01.484Z,19.86
2018-09-21T06:39:30.920Z,19.89
2018-09-21T06:42:00.291Z,20.00
2018-09-21T06:44:29.729Z,20.01
2018-09-21T06:46:59.368Z,20.10
2018-09-21T06:49:29.076Z,20.21
2018-09-21T06:51:58.441Z,20.22
2018-09-21T06:54:27.848Z,20.45
2018-09-21T06:56:57.226Z,20.45
2018-09-21T06:59:26.615Z,20.68
2018-09-21T07:01:56.016Z,20.77
2018-09-21T07:04:25.454Z,20.98
2018-09-21T07:06:54.859Z,21.18
2018-09-21T07:09:24.254Z,21.37
2018-09-21T07:11:53.652Z,21.55
2018-09-21T07:14:23.058Z,21.66
2018-09-21T07:16:52.403Z,21.94
2018-09-21T07:19:21.876Z,21.98
2018-09-21T07:21:51.235Z,22.12
2018-09-21T07:24:20.687Z,22.27
2018-09-21T07:26:50.038Z,22.16
2018-09-21T07:29:19.470Z,22.37
2018-09-21T07:31:48.840Z,22.37
2018-09-21T07:34:18.286Z,22.90
2018-09-21T07:36:47.646Z,23.18
2018-09-21T07:39:17.087Z,23.36
2018-09-21T07:41:46.493Z,23.51
2018-09-21T07:44:15.886Z,23.68
2018-09-21T07:46:45.254Z,23.75
2018-09-21T07:49:14.694Z,23.87
2018-09-21T07:51:44.905Z,23.87
2018-09-21T07:54:14.367Z,24.00
2018-09-21T07:56:43.737Z,23.90
2018-09-21T07:59:13.110Z,24.00
2018-09-21T08:01:42.483Z,23.91
2018-09-21T08:04:11.920Z,23.90
2018-09-21T08:06:41.284Z,24.04
2018-09-21T08:09:11.699Z,23.91
2018-09-21T08:11:41.071Z,23.86
2018-09-21T08:14:10.455Z,23.77
2018-09-21T08:16:39.834Z,23.59
2018-09-21T08:19:09.267Z,23.58
2018-09-21T08:21:38.653Z,23.51
2018-09-21T08:24:08.113Z,23.49
2018-09-21T08:26:37.553Z,23.63
2018-09-21T08:29:07.007Z,23.70
2018-09-21T08:31:36.390Z,23.56
2018-09-21T08:34:05.794Z,23.59
2018-09-21T08:36:35.162Z,23.65
2018-09-21T08:39:07.171Z,23.70
2018-09-21T08:41:36.735Z,23.64
2018-09-21T08:44:06.182Z,23.73
2018-09-21T08:46:35.551Z,23.77
2018-09-21T08:49:04.963Z,23.61
2018-09-21T08:51:34.369Z,23.81
2018-09-21T08:54:04.804Z,23.92
2018-09-21T08:56:34.143Z,23.91
2018-09-21T08:59:03.614Z,24.10
2018-09-21T09:01:32.991Z,24.04
2018-09-21T09:04:02.403Z,24.40
2018-09-21T09:06:31.766Z,24.22
2018-09-21T09:09:01.210Z,24.25
2018-09-21T09:11:30.624Z,24.46
2018-09-21T09:14:00.021Z,24.55
2018-09-21T09:16:29.374Z,24.66
2018-09-21T09:18:58.751Z,24.61
2018-09-21T09:21:28.108Z,24.50
2018-09-21T09:23:57.562Z,24.68
2018-09-21T09:26:26.947Z,24.76
2018-09-21T09:28:56.289Z,24.69
2018-09-21T09:31:25.905Z,24.84
2018-09-21T09:33:55.274Z,25.03
2018-09-21T09:36:24.734Z,25.22
2018-09-21T09:38:54.137Z,25.05
2018-09-21T09:41:23.547Z,24.77
2018-09-21T09:43:52.935Z,24.81
2018-09-21T09:46:22.338Z,24.89
2018-09-21T09:48:51.812Z,25.18
2018-09-21T09:51:21.156Z,25.13
2018-09-21T09:53:50.522Z,25.00
2018-09-21T09:56:19.979Z,25.15
2018-09-21T09:58:49.330Z,25.03
2018-09-21T10:01:18.768Z,25.37
2018-09-21T10:03:48.139Z,25.44
2018-09-21T10:06:17.560Z,25.14
2018-09-21T10:08:46.902Z,25.18
2018-09-21T10:11:16.292Z,25.20
2018-09-21T10:13:45.776Z,25.01
2018-09-21T10:16:15.217Z,25.03
2018-09-21T10:18:44.566Z,25.06
2018-09-21T10:21:13.998Z,25.04
2018-09-21T10:23:43.359Z,24.86
2018-09-21T10:26:12.714Z,24.93
2018-09-21T10:28:42.343Z,24.99
2018-09-21T10:31:11.454Z,25.05
2018-09-21T10:33:40.970Z,25.00
2018-09-21T10:36:10.315Z,25.03
2018-09-21T10:38:39.725Z,24.93
2018-09-21T10:41:09.123Z,24.91
2018-09-21T10:43:38.646Z,24.92
2018-09-21T10:46:08.333Z,24.75
2018-09-21T10:48:37.721Z,24.67
2018-09-21T10:51:06.728Z,24.73
2018-09-21T10:53:36.367Z,24.63
2018-09-21T10:56:05.738Z,24.75
2018-09-21T10:58:35.199Z,24.71
2018-09-21T11:01:04.577Z,24.75
2018-09-21T11:03:33.935Z,24.72
2018-09-21T11:06:03.303Z,24.87
2018-09-21T11:08:32.734Z,24.64
2018-09-21T11:11:02.111Z,24.64
2018-09-21T11:13:31.535Z,24.51
2018-09-21T11:16:00.931Z,24.58
2018-09-21T11:18:30.366Z,24.58
2018-09-21T11:20:59.723Z,24.87
2018-09-21T11:23:29.158Z,24.73
2018-09-21T11:25:58.515Z,24.77
2018-09-21T11:28:27.973Z,24.88
2018-09-21T11:30:57.339Z,25.71
2018-09-21T11:33:26.800Z,25.93
2018-09-21T11:35:56.515Z,25.62
2018-09-21T11:38:25.996Z,25.29
2018-09-21T11:40:55.427Z,25.08
2018-09-21T11:43:24.899Z,25.61
2018-09-21T11:45:54.299Z,25.14
2018-09-21T11:48:23.714Z,24.76
2018-09-21T11:50:53.254Z,24.73
2018-09-21T11:53:22.635Z,24.59
2018-09-21T11:55:51.992Z,24.51
2018-09-21T11:58:21.416Z,24.24
2018-09-21T12:00:50.963Z,24.29
2018-09-21T12:03:20.446Z,24.27
2018-09-21T12:05:49.794Z,24.23
2018-09-21T12:08:19.216Z,24.28
2018-09-21T12:10:48.741Z,24.18
2018-09-21T12:13:18.138Z,24.23
2018-09-21T12:15:47.510Z,24.22
2018-09-21T12:18:16.946Z,24.24
2018-09-21T12:20:46.312Z,24.10
2018-09-21T12:23:15.638Z,24.19
2018-09-21T12:25:45.015Z,24.20
2018-09-21T12:28:14.431Z,24.20
2018-09-21T12:30:43.815Z,24.19
2018-09-21T12:33:13.246Z,24.20
2018-09-21T12:35:42.599Z,24.30
2018-09-21T12:38:12.061Z,24.37
2018-09-21T12:40:41.424Z,24.41
2018-09-21T12:43:10.879Z,24.35
2018-09-21T12:45:40.234Z,24.44
2018-09-21T12:48:09.664Z,24.30
2018-09-21T12:50:39.131Z,24.43
2018-09-21T12:53:08.459Z,24.33
2018-09-21T12:55:37.871Z,24.39
2018-09-21T12:58:07.317Z,24.40
2018-09-21T13:00:41.949Z,24.40
2018-09-21T13:03:11.304Z,24.49
2018-09-21T13:05:40.703Z,24.47
2018-09-21T13:08:10.057Z,24.50
2018-09-21T13:10:39.519Z,24.74
2018-09-21T13:13:08.907Z,24.35
2018-09-21T13:15:38.319Z,24.37
2018-09-21T13:18:07.671Z,24.31
2018-09-21T13:20:37.143Z,24.31
2018-09-21T13:23:06.716Z,24.10
2018-09-21T13:25:36.104Z,24.08
2018-09-21T13:28:05.528Z,23.93
2018-09-21T13:30:34.947Z,23.80
2018-09-21T13:33:04.337Z,23.83
2018-09-21T13:35:33.759Z,23.86
2018-09-21T13:38:03.143Z,23.76
2018-09-21T13:40:32.522Z,23.70
2018-09-21T13:43:01.968Z,23.60
2018-09-21T13:45:31.340Z,23.54
2018-09-21T13:48:00.773Z,23.56
2018-09-21T13:50:30.155Z,23.60
2018-09-21T13:52:59.559Z,23.55
2018-09-21T13:55:28.936Z,23.51
2018-09-21T13:57:58.400Z,23.55
2018-09-21T14:00:27.751Z,23.36
2018-09-21T14:02:57.189Z,23.25
2018-09-21T14:05:26.651Z,23.33
2018-09-21T14:07:56.093Z,23.39
2018-09-21T14:10:25.451Z,23.39
2018-09-21T14:12:54.963Z,23.42
2018-09-21T14:15:24.347Z,23.43
2018-09-21T14:17:53.806Z,23.45
2018-09-21T14:20:23.169Z,23.44
2018-09-21T14:22:52.612Z,23.41
2018-09-21T14:25:21.958Z,23.39
2018-09-21T14:27:51.324Z,23.50
2018-09-21T14:30:20.695Z,23.43
2018-09-21T14:32:50.078Z,23.45
2018-09-21T14:35:19.530Z,23.43
2018-09-21T14:37:48.928Z,23.58
2018-09-21T14:40:18.334Z,23.54
2018-09-21T14:42:47.691Z,23.53
2018-09-21T14:45:17.140Z,23.58
2018-09-21T14:47:46.529Z,23.47
2018-09-21T14:50:15.894Z,23.55
2018-09-21T14:52:45.352Z,23.48
2018-09-21T14:55:14.722Z,23.43
2018-09-21T14:57:44.150Z,23.26
2018-09-21T15:00:13.506Z,22.42
2018-09-21T15:02:42.930Z,21.22
2018-09-21T15:05:12.294Z,20.56
2018-09-21T15:07:41.667Z,19.70
2018-09-21T15:10:11.036Z,18.81
2018-09-21T15:12:40.442Z,17.12
2018-09-21T15:15:09.799Z,16.49
2018-09-21T15:17:39.248Z,15.71
2018-09-21T15:20:08.631Z,15.04
2018-09-21T15:22:38.198Z,14.96
2018-09-21T15:25:07.559Z,14.70
2018-09-21T15:27:36.923Z,14.50
2018-09-21T15:30:06.300Z,14.12
2018-09-21T15:32:35.647Z,13.73
2018-09-21T15:35:05.066Z,13.39
2018-09-21T15:37:34.423Z,13.19
2018-09-21T15:40:03.898Z,13.08
2018-09-21T15:42:33.260Z,12.95
2018-09-21T15:45:02.670Z,12.83
2018-09-21T15:47:32.058Z,12.79
2018-09-21T15:50:01.496Z,12.74
2018-09-21T15:52:31.950Z,12.76
2018-09-21T15:55:01.415Z,12.82
2018-09-21T15:57:30.770Z,12.86
2018-09-21T16:00:00.211Z,12.86
2018-09-21T16:02:29.566Z,12.99
2018-09-21T16:04:58.922Z,12.93
2018-09-21T16:07:28.320Z,12.81
2018-09-21T16:09:57.718Z,12.73
2018-09-21T16:12:27.077Z,12.75
2018-09-21T16:14:56.523Z,12.64
2018-09-21T16:17:25.893Z,12.53
2018-09-21T16:19:55.355Z,12.53
2018-09-21T16:22:24.711Z,12.32
2018-09-21T16:24:54.133Z,12.32
2018-09-21T16:27:23.494Z,12.37
2018-09-21T16:29:52.943Z,12.33
2018-09-21T16:32:22.301Z,12.34
2018-09-21T16:34:51.658Z,12.32
2018-09-21T16:37:21.025Z,12.26
2018-09-21T16:39:50.450Z,12.20
2018-09-21T16:42:19.806Z,12.28
2018-09-21T16:44:49.314Z,12.34
2018-09-21T16:47:18.618Z,12.34
2018-09-21T16:49:48.058Z,12.36
2018-09-21T16:52:17.440Z,12.28
2018-09-21T16:54:46.852Z,12.35
2018-09-21T16:57:16.276Z,12.23
2018-09-21T16:59:45.667Z,12.34
2018-09-21T17:02:15.091Z,12.29
2018-09-21T17:04:44.504Z,12.22
2018-09-21T17:07:17.118Z,12.18
2018-09-21T17:09:48.290Z,12.08
2018-09-21T17:12:18.274Z,12.09
2018-09-21T17:14:47.620Z,12.13
2018-09-21T17:17:16.995Z,12.17
2018-09-21T17:19:46.439Z,12.05
2018-09-21T17:22:15.807Z,12.11
2018-09-21T17:24:45.162Z,12.11
2018-09-21T17:27:14.536Z,12.06
2018-09-21T17:29:43.922Z,12.05
2018-09-21T17:32:13.279Z,12.05
2018-09-21T17:34:42.726Z,12.07
2018-09-21T17:37:12.280Z,12.15
2018-09-21T17:39:41.739Z,12.00
2018-09-21T17:42:11.152Z,11.99
2018-09-21T17:44:40.534Z,11.90
2018-09-21T17:47:09.895Z,11.88
2018-09-21T17:49:39.345Z,11.94
2018-09-21T17:52:08.898Z,11.97
2018-09-21T17:54:38.510Z,12.03
2018-09-21T17:57:08.539Z,11.97
2018-09-21T17:59:37.998Z,11.96
2018-09-21T18:02:07.610Z,12.01
2018-09-21T18:04:37.008Z,12.06
2018-09-21T18:07:06.376Z,12.03
2018-09-21T18:09:35.790Z,12.04
2018-09-21T18:12:05.156Z,12.06
2018-09-21T18:14:34.585Z,12.12
2018-09-21T18:17:03.939Z,12.15
2018-09-21T18:19:33.406Z,12.06
2018-09-21T18:22:02.766Z,12.04
2018-09-21T18:24:32.227Z,12.01
2018-09-21T18:27:01.583Z,11.98
2018-09-21T18:29:31.022Z,11.96
2018-09-21T18:32:00.390Z,12.00
2018-09-21T18:34:29.822Z,12.04
2018-09-21T18:36:59.299Z,12.02
2018-09-21T18:39:28.808Z,12.07
2018-09-21T18:41:58.143Z,12.12
2018-09-21T18:44:27.545Z,12.09
2018-09-21T18:46:56.986Z,12.06
2018-09-21T18:49:26.610Z,12.04
2018-09-21T18:51:56.086Z,12.11
2018-09-21T18:54:25.577Z,12.13
2018-09-21T18:56:54.929Z,12.12
2018-09-21T18:59:24.350Z,12.22
2018-09-21T19:01:53.714Z,12.15
2018-09-21T19:04:23.156Z,12.12
2018-09-21T19:06:52.519Z,12.11
2018-09-21T19:09:21.961Z,12.15
2018-09-21T19:11:51.324Z,12.13
2018-09-21T19:14:20.770Z,12.18
2018-09-21T19:16:50.121Z,12.15
2018-09-21T19:19:19.579Z,12.19
2018-09-21T19:21:48.989Z,12.12
2018-09-21T19:24:18.363Z,12.08
2018-09-21T19:26:47.722Z,12.00
2018-09-21T19:29:17.188Z,12.00
2018-09-21T19:31:46.552Z,12.06
2018-09-21T19:34:15.978Z,12.08
2018-09-21T19:36:45.403Z,11.99
2018-09-21T19:39:14.805Z,12.07
2018-09-21T19:41:44.171Z,12.00
2018-09-21T19:44:13.617Z,11.92
2018-09-21T19:46:42.981Z,11.97
2018-09-21T19:49:12.400Z,11.96
2018-09-21T19:51:41.755Z,12.05
2018-09-21T19:54:11.171Z,11.99
2018-09-21T19:56:40.475Z,11.90
2018-09-21T19:59:09.935Z,11.88
2018-09-21T20:01:39.289Z,11.96
2018-09-21T20:04:08.716Z,12.00
2018-09-21T20:06:38.069Z,11.84
2018-09-21T20:09:10.733Z,11.88
2018-09-21T20:11:40.346Z,11.85
2018-09-21T20:14:09.927Z,11.86
2018-09-21T20:16:39.251Z,11.90
2018-09-21T20:19:08.718Z,11.87
2018-09-21T20:21:38.115Z,11.92
2018-09-21T20:24:07.505Z,11.94
2018-09-21T20:26:36.831Z,11.87
2018-09-21T20:29:06.222Z,11.90
2018-09-21T20:31:40.887Z,11.93
2018-09-21T20:34:10.243Z,11.88
2018-09-21T20:36:39.637Z,11.84
2018-09-21T20:39:09.553Z,11.80
2018-09-21T20:41:38.954Z,11.91
2018-09-21T20:44:08.310Z,11.84
2018-09-21T20:46:37.781Z,11.87
2018-09-21T20:49:07.139Z,11.78
2018-09-21T20:51:36.575Z,11.86
2018-09-21T20:54:06.233Z,11.87
2018-09-21T20:56:35.684Z,11.84
2018-09-21T20:59:05.023Z,11.81
2018-09-21T21:01:34.499Z,11.86
2018-09-21T21:04:03.855Z,11.84
2018-09-21T21:06:33.299Z,11.86
2018-09-21T21:09:02.651Z,11.90
2018-09-21T21:11:32.012Z,11.90
2018-09-21T21:14:01.372Z,11.95
2018-09-21T21:16:30.842Z,11.93
2018-09-21T21:19:00.195Z,11.93
2018-09-21T21:21:29.610Z,11.94
2018-09-21T21:23:58.965Z,11.95
2018-09-21T21:26:28.308Z,11.96
2018-09-21T21:28:57.706Z,11.93
2018-09-21T21:31:27.127Z,11.93
2018-09-21T21:33:56.519Z,11.93
2018-09-21T21:36:26.250Z,11.97
2018-09-21T21:38:55.952Z,11.97
2018-09-21T21:41:25.686Z,11.90
2018-09-21T21:43:55.147Z,12.02
2018-09-21T21:46:24.573Z,11.95
2018-09-21T21:48:53.974Z,12.01
2018-09-21T21:51:23.334Z,11.99
2018-09-21T21:53:52.768Z,11.99
2018-09-21T21:56:22.129Z,11.94
2018-09-21T21:58:51.502Z,12.03
2018-09-21T22:01:57.178Z,12.01
2018-09-21T22:04:27.473Z,11.95
2018-09-21T22:06:56.942Z,12.09
2018-09-21T22:09:26.343Z,12.03
2018-09-21T22:12:01.003Z,12.07
2018-09-21T22:14:30.353Z,12.00
2018-09-21T22:16:59.755Z,12.02
2018-09-21T22:19:29.057Z,11.98
2018-09-21T22:21:58.478Z,12.00
2018-09-21T22:24:27.814Z,12.01
2018-09-21T22:26:57.184Z,11.92
2018-09-21T22:29:26.583Z,11.92
2018-09-21T22:31:55.946Z,11.93
2018-09-21T22:34:25.378Z,11.89
2018-09-21T22:36:54.759Z,11.87
2018-09-21T22:39:24.182Z,11.88
2018-09-21T22:41:53.547Z,11.96
2018-09-21T22:44:23.009Z,11.94
2018-09-21T22:46:52.367Z,11.93
2018-09-21T22:49:22.987Z,11.91
2018-09-21T22:51:52.363Z,11.90
2018-09-21T22:54:21.855Z,11.81
2018-09-21T22:56:51.208Z,11.77
2018-09-21T22:59:20.653Z,11.78
2018-09-21T23:01:50.018Z,11.72
2018-09-21T23:04:19.459Z,11.68
2018-09-21T23:06:48.830Z,11.61
2018-09-21T23:09:18.250Z,11.61
2018-09-21T23:11:47.636Z,11.61
2018-09-21T23:14:17.087Z,11.63
2018-09-21T23:16:46.436Z,11.54
2018-09-21T23:19:15.856Z,11.59
2018-09-21T23:21:45.267Z,11.50
2018-09-21T23:24:14.663Z,11.53
2018-09-21T23:26:44.012Z,11.45
2018-09-21T23:29:13.482Z,11.42
2018-09-21T23:31:42.859Z,11.42
2018-09-21T23:34:12.313Z,11.38
2018-09-21T23:36:41.707Z,11.43
2018-09-21T23:39:11.537Z,11.43
2018-09-21T23:41:40.908Z,11.36
2018-09-21T23:44:10.753Z,11.27
2018-09-21T23:46:40.173Z,11.33
2018-09-21T23:49:09.549Z,11.44
2018-09-21T23:51:38.927Z,11.40
2018-09-21T23:54:08.295Z,11.36
2018-09-21T23:56:37.644Z,11.33
2018-09-21T23:59:07.109Z,11.25
